sensor_id;sensor_type;location;lat;lon;timestamp;P1;durP1;ratioP1;P2;durP2;ratioP2
3995;SDS011;2012;49.794;9.722;2024-01-15T00:00:17;44.77;;;19.27;;
3995;SDS011;2012;49.794;9.722;2024-01-15T00:02:44;44.37;;;19.00;;
3995;SDS011;2012;49.794;9.722;2024-01-15T00:05:11;45.73;;;16.60;;
3995;SDS011;2012;49.794;9.722;2024-01-15T00:07:38;43.00;;;19.80;;
3995;SDS011;2012;49.794;9.722;2024-01-15T00:10:05;44.20;;;19.03;;
3995;SDS011;2012;49.794;9.722;2024-01-15T00:12:32;44.93;;;19.27;;
3995;SDS011;2012;49.794;9.722;2024-01-15T00:14:59;49.70;;;21.37;;
3995;SDS011;2012;49.794;9.722;2024-01-15T00:17:26;51.83;;;20.10;;
3995;SDS011;2012;49.794;9.722;2024-01-15T00:19:53;42.53;;;18.87;;
3995;SDS011;2012;49.794;9.722;2024-01-15T00:22:20;43.77;;;19.60;;
3995;SDS011;2012;49.794;9.722;2024-01-15T00:24:47;46.00;;;20.90;;
3995;SDS011;2012;49.794;9.722;2024-01-15T00:27:14;45.43;;;19.87;;
3995;SDS011;2012;49.794;9.722;2024-01-15T00:29:41;44.60;;;19.90;;
3995;SDS011;2012;49.794;9.722;2024-01-15T00:32:07;63.50;;;20.47;;
3995;SDS011;2012;49.794;9.722;2024-01-15T00:34:34;51.10;;;20.53;;
3995;SDS011;2012;49.794;9.722;2024-01-15T00:37:01;45.83;;;19.80;;
3995;SDS011;2012;49.794;9.722;2024-01-15T00:39:29;45.23;;;20.57;;
3995;SDS011;2012;49.794;9.722;2024-01-15T00:41:56;48.83;;;19.47;;
3995;SDS011;2012;49.794;9.722;2024-01-15T00:44:23;42.60;;;18.50;;
3995;SDS011;2012;49.794;9.722;2024-01-15T00:46:50;50.27;;;20.77;;
3995;SDS011;2012;49.794;9.722;2024-01-15T00:49:16;47.90;;;21.53;;
3995;SDS011;2012;49.794;9.722;2024-01-15T00:51:44;45.90;;;20.03;;
3995;SDS011;2012;49.794;9.722;2024-01-15T00:54:11;51.63;;;20.80;;
3995;SDS011;2012;49.794;9.722;2024-01-15T00:56:37;47.47;;;20.57;;
3995;SDS011;2012;49.794;9.722;2024-01-15T00:59:04;48.67;;;19.27;;
3995;SDS011;2012;49.794;9.722;2024-01-15T01:01:31;47.60;;;19.50;;
3995;SDS011;2012;49.794;9.722;2024-01-15T01:03:58;39.30;;;18.40;;
3995;SDS011;2012;49.794;9.722;2024-01-15T01:06:25;48.10;;;19.67;;
3995;SDS011;2012;49.794;9.722;2024-01-15T01:08:52;45.60;;;20.00;;
3995;SDS011;2012;49.794;9.722;2024-01-15T01:11:19;43.00;;;19.00;;
3995;SDS011;2012;49.794;9.722;2024-01-15T01:13:46;38.30;;;18.27;;
3995;SDS011;2012;49.794;9.722;2024-01-15T01:16:13;42.07;;;18.50;;
3995;SDS011;2012;49.794;9.722;2024-01-15T01:18:40;45.07;;;18.93;;
3995;SDS011;2012;49.794;9.722;2024-01-15T01:21:07;40.80;;;19.00;;
3995;SDS011;2012;49.794;9.722;2024-01-15T01:23:34;41.67;;;18.80;;
3995;SDS011;2012;49.794;9.722;2024-01-15T01:26:01;40.40;;;18.73;;
3995;SDS011;2012;49.794;9.722;2024-01-15T01:28:27;40.90;;;17.60;;
3995;SDS011;2012;49.794;9.722;2024-01-15T01:30:55;37.50;;;17.93;;
3995;SDS011;2012;49.794;9.722;2024-01-15T01:33:22;39.90;;;18.60;;
3995;SDS011;2012;49.794;9.722;2024-01-15T01:35:49;43.23;;;19.93;;
3995;SDS011;2012;49.794;9.722;2024-01-15T01:38:15;42.67;;;18.70;;
3995;SDS011;2012;49.794;9.722;2024-01-15T01:40:42;43.93;;;20.60;;
3995;SDS011;2012;49.794;9.722;2024-01-15T01:43:09;44.40;;;19.53;;
3995;SDS011;2012;49.794;9.722;2024-01-15T01:45:37;38.93;;;17.70;;
3995;SDS011;2012;49.794;9.722;2024-01-15T01:48:05;35.40;;;17.07;;
3995;SDS011;2012;49.794;9.722;2024-01-15T01:50:32;37.53;;;17.63;;
3995;SDS011;2012;49.794;9.722;2024-01-15T01:53:00;36.80;;;17.57;;
3995;SDS011;2012;49.794;9.722;2024-01-15T01:55:30;41.53;;;18.07;;
3995;SDS011;2012;49.794;9.722;2024-01-15T01:58:00;32.97;;;15.90;;
3995;SDS011;2012;49.794;9.722;2024-01-15T02:00:28;31.80;;;16.97;;
3995;SDS011;2012;49.794;9.722;2024-01-15T02:02:55;36.27;;;15.60;;
3995;SDS011;2012;49.794;9.722;2024-01-15T02:05:22;32.33;;;14.20;;
3995;SDS011;2012;49.794;9.722;2024-01-15T02:07:49;37.20;;;15.77;;
3995;SDS011;2012;49.794;9.722;2024-01-15T02:10:16;34.23;;;16.17;;
3995;SDS011;2012;49.794;9.722;2024-01-15T02:12:43;31.13;;;14.93;;
3995;SDS011;2012;49.794;9.722;2024-01-15T02:15:10;30.87;;;15.00;;
3995;SDS011;2012;49.794;9.722;2024-01-15T02:17:56;31.07;;;14.40;;
3995;SDS011;2012;49.794;9.722;2024-01-15T02:33:03;29.30;;;14.23;;
3995;SDS011;2012;49.794;9.722;2024-01-15T02:35:30;33.13;;;15.73;;
3995;SDS011;2012;49.794;9.722;2024-01-15T02:37:57;38.90;;;17.83;;
3995;SDS011;2012;49.794;9.722;2024-01-15T02:40:24;31.77;;;13.70;;
3995;SDS011;2012;49.794;9.722;2024-01-15T02:42:50;31.87;;;16.60;;
3995;SDS011;2012;49.794;9.722;2024-01-15T02:45:17;33.10;;;14.50;;
3995;SDS011;2012;49.794;9.722;2024-01-15T02:47:44;34.10;;;14.97;;
3995;SDS011;2012;49.794;9.722;2024-01-15T02:50:11;29.90;;;13.50;;
3995;SDS011;2012;49.794;9.722;2024-01-15T02:52:38;30.37;;;13.80;;
3995;SDS011;2012;49.794;9.722;2024-01-15T02:55:05;28.43;;;13.67;;
3995;SDS011;2012;49.794;9.722;2024-01-15T02:57:32;27.73;;;13.47;;
3995;SDS011;2012;49.794;9.722;2024-01-15T02:59:59;26.00;;;13.83;;
3995;SDS011;2012;49.794;9.722;2024-01-15T03:02:26;33.77;;;14.50;;
3995;SDS011;2012;49.794;9.722;2024-01-15T03:04:53;25.67;;;12.77;;
3995;SDS011;2012;49.794;9.722;2024-01-15T03:07:20;29.17;;;13.37;;
3995;SDS011;2012;49.794;9.722;2024-01-15T03:09:46;25.07;;;13.67;;
3995;SDS011;2012;49.794;9.722;2024-01-15T03:12:13;29.57;;;12.03;;
3995;SDS011;2012;49.794;9.722;2024-01-15T03:14:40;27.60;;;13.87;;
3995;SDS011;2012;49.794;9.722;2024-01-15T03:17:07;29.20;;;12.73;;
3995;SDS011;2012;49.794;9.722;2024-01-15T03:19:36;22.60;;;12.60;;
3995;SDS011;2012;49.794;9.722;2024-01-15T03:22:03;24.27;;;12.00;;
3995;SDS011;2012;49.794;9.722;2024-01-15T03:24:31;23.83;;;12.60;;
3995;SDS011;2012;49.794;9.722;2024-01-15T03:26:58;25.70;;;12.00;;
3995;SDS011;2012;49.794;9.722;2024-01-15T03:29:25;24.00;;;12.13;;
3995;SDS011;2012;49.794;9.722;2024-01-15T03:31:53;31.23;;;12.83;;
3995;SDS011;2012;49.794;9.722;2024-01-15T03:34:20;26.00;;;11.77;;
3995;SDS011;2012;49.794;9.722;2024-01-15T03:36:47;22.23;;;11.50;;
3995;SDS011;2012;49.794;9.722;2024-01-15T03:39:14;22.20;;;12.33;;
3995;SDS011;2012;49.794;9.722;2024-01-15T03:41:41;23.97;;;11.43;;
3995;SDS011;2012;49.794;9.722;2024-01-15T03:44:07;26.77;;;13.20;;
3995;SDS011;2012;49.794;9.722;2024-01-15T03:46:34;23.60;;;12.90;;
3995;SDS011;2012;49.794;9.722;2024-01-15T03:49:01;25.57;;;12.10;;
3995;SDS011;2012;49.794;9.722;2024-01-15T03:51:28;24.30;;;12.40;;
3995;SDS011;2012;49.794;9.722;2024-01-15T03:53:55;24.67;;;12.70;;
3995;SDS011;2012;49.794;9.722;2024-01-15T03:56:22;23.73;;;10.90;;
3995;SDS011;2012;49.794;9.722;2024-01-15T03:58:49;28.43;;;12.53;;
3995;SDS011;2012;49.794;9.722;2024-01-15T04:09:17;25.67;;;12.20;;
3995;SDS011;2012;49.794;9.722;2024-01-15T04:11:44;21.73;;;10.77;;
3995;SDS011;2012;49.794;9.722;2024-01-15T04:14:10;25.43;;;11.67;;
3995;SDS011;2012;49.794;9.722;2024-01-15T04:16:37;28.63;;;13.33;;
3995;SDS011;2012;49.794;9.722;2024-01-15T04:19:04;32.47;;;14.60;;
3995;SDS011;2012;49.794;9.722;2024-01-15T04:21:31;29.67;;;12.73;;
3995;SDS011;2012;49.794;9.722;2024-01-15T04:23:58;21.93;;;11.10;;
3995;SDS011;2012;49.794;9.722;2024-01-15T04:26:25;22.60;;;12.40;;
3995;SDS011;2012;49.794;9.722;2024-01-15T04:28:52;25.10;;;12.30;;
3995;SDS011;2012;49.794;9.722;2024-01-15T04:31:28;23.50;;;12.47;;
3995;SDS011;2012;49.794;9.722;2024-01-15T04:33:55;21.03;;;11.60;;
3995;SDS011;2012;49.794;9.722;2024-01-15T04:36:22;30.43;;;12.73;;
3995;SDS011;2012;49.794;9.722;2024-01-15T04:38:49;22.77;;;11.80;;
3995;SDS011;2012;49.794;9.722;2024-01-15T04:41:16;55.37;;;15.30;;
3995;SDS011;2012;49.794;9.722;2024-01-15T04:43:43;31.43;;;15.80;;
3995;SDS011;2012;49.794;9.722;2024-01-15T04:46:10;28.53;;;13.40;;
3995;SDS011;2012;49.794;9.722;2024-01-15T04:48:37;27.17;;;13.80;;
3995;SDS011;2012;49.794;9.722;2024-01-15T04:51:04;24.57;;;13.30;;
3995;SDS011;2012;49.794;9.722;2024-01-15T04:53:32;32.83;;;13.77;;
3995;SDS011;2012;49.794;9.722;2024-01-15T04:56:00;31.63;;;14.73;;
3995;SDS011;2012;49.794;9.722;2024-01-15T04:58:28;30.63;;;14.90;;
3995;SDS011;2012;49.794;9.722;2024-01-15T05:00:55;25.17;;;13.43;;
3995;SDS011;2012;49.794;9.722;2024-01-15T05:03:22;26.57;;;12.90;;
3995;SDS011;2012;49.794;9.722;2024-01-15T05:05:49;28.40;;;14.00;;
3995;SDS011;2012;49.794;9.722;2024-01-15T05:08:16;28.10;;;13.17;;
3995;SDS011;2012;49.794;9.722;2024-01-15T05:10:43;32.07;;;13.77;;
3995;SDS011;2012;49.794;9.722;2024-01-15T05:13:10;24.50;;;13.00;;
3995;SDS011;2012;49.794;9.722;2024-01-15T05:15:37;29.97;;;13.37;;
3995;SDS011;2012;49.794;9.722;2024-01-15T05:18:04;33.13;;;15.50;;
3995;SDS011;2012;49.794;9.722;2024-01-15T05:20:31;43.30;;;17.00;;
3995;SDS011;2012;49.794;9.722;2024-01-15T05:22:58;38.17;;;14.50;;
3995;SDS011;2012;49.794;9.722;2024-01-15T05:25:24;23.33;;;12.37;;
3995;SDS011;2012;49.794;9.722;2024-01-15T05:27:51;27.90;;;12.33;;
3995;SDS011;2012;49.794;9.722;2024-01-15T05:30:18;28.07;;;14.63;;
3995;SDS011;2012;49.794;9.722;2024-01-15T05:32:45;35.30;;;17.00;;
3995;SDS011;2012;49.794;9.722;2024-01-15T05:35:12;38.53;;;16.73;;
3995;SDS011;2012;49.794;9.722;2024-01-15T05:37:41;29.23;;;13.20;;
3995;SDS011;2012;49.794;9.722;2024-01-15T05:40:09;27.63;;;12.67;;
3995;SDS011;2012;49.794;9.722;2024-01-15T05:42:37;22.80;;;12.30;;
3995;SDS011;2012;49.794;9.722;2024-01-15T05:45:04;30.43;;;14.20;;
3995;SDS011;2012;49.794;9.722;2024-01-15T05:47:31;29.13;;;12.73;;
3995;SDS011;2012;49.794;9.722;2024-01-15T05:49:58;27.80;;;14.10;;
3995;SDS011;2012;49.794;9.722;2024-01-15T05:52:27;32.67;;;14.80;;
3995;SDS011;2012;49.794;9.722;2024-01-15T05:54:53;29.13;;;11.23;;
3995;SDS011;2012;49.794;9.722;2024-01-15T05:57:20;25.10;;;12.40;;
3995;SDS011;2012;49.794;9.722;2024-01-15T05:59:47;26.00;;;11.73;;
3995;SDS011;2012;49.794;9.722;2024-01-15T06:02:14;23.30;;;12.27;;
3995;SDS011;2012;49.794;9.722;2024-01-15T06:04:40;25.40;;;12.13;;
3995;SDS011;2012;49.794;9.722;2024-01-15T06:07:07;31.17;;;13.70;;
3995;SDS011;2012;49.794;9.722;2024-01-15T06:09:34;28.60;;;12.37;;
3995;SDS011;2012;49.794;9.722;2024-01-15T06:12:01;36.27;;;12.97;;
3995;SDS011;2012;49.794;9.722;2024-01-15T06:14:28;31.50;;;15.47;;
3995;SDS011;2012;49.794;9.722;2024-01-15T06:16:55;25.10;;;12.23;;
3995;SDS011;2012;49.794;9.722;2024-01-15T06:19:21;26.13;;;12.23;;
3995;SDS011;2012;49.794;9.722;2024-01-15T06:21:48;25.97;;;13.00;;
3995;SDS011;2012;49.794;9.722;2024-01-15T06:24:15;29.20;;;12.60;;
3995;SDS011;2012;49.794;9.722;2024-01-15T06:26:44;29.93;;;13.30;;
3995;SDS011;2012;49.794;9.722;2024-01-15T06:29:12;27.93;;;12.20;;
3995;SDS011;2012;49.794;9.722;2024-01-15T06:31:39;21.10;;;11.60;;
3995;SDS011;2012;49.794;9.722;2024-01-15T06:34:06;28.07;;;12.70;;
3995;SDS011;2012;49.794;9.722;2024-01-15T06:36:33;29.37;;;13.17;;
3995;SDS011;2012;49.794;9.722;2024-01-15T06:39:00;26.40;;;12.33;;
3995;SDS011;2012;49.794;9.722;2024-01-15T06:41:27;34.03;;;12.20;;
3995;SDS011;2012;49.794;9.722;2024-01-15T06:43:54;23.90;;;12.53;;
3995;SDS011;2012;49.794;9.722;2024-01-15T06:46:22;22.43;;;11.23;;
3995;SDS011;2012;49.794;9.722;2024-01-15T06:48:49;24.30;;;12.90;;
3995;SDS011;2012;49.794;9.722;2024-01-15T06:51:16;21.97;;;12.17;;
3995;SDS011;2012;49.794;9.722;2024-01-15T06:53:43;21.90;;;11.33;;
3995;SDS011;2012;49.794;9.722;2024-01-15T06:56:10;24.87;;;11.83;;
3995;SDS011;2012;49.794;9.722;2024-01-15T06:58:37;24.63;;;11.93;;
3995;SDS011;2012;49.794;9.722;2024-01-15T07:05:24;26.33;;;13.43;;
3995;SDS011;2012;49.794;9.722;2024-01-15T07:07:51;25.07;;;12.33;;
3995;SDS011;2012;49.794;9.722;2024-01-15T07:10:17;27.33;;;14.13;;
3995;SDS011;2012;49.794;9.722;2024-01-15T07:12:44;33.83;;;15.90;;
3995;SDS011;2012;49.794;9.722;2024-01-15T07:15:11;29.53;;;15.20;;
3995;SDS011;2012;49.794;9.722;2024-01-15T07:17:38;34.30;;;15.77;;
3995;SDS011;2012;49.794;9.722;2024-01-15T07:20:06;36.27;;;17.77;;
3995;SDS011;2012;49.794;9.722;2024-01-15T07:22:37;25.20;;;12.60;;
3995;SDS011;2012;49.794;9.722;2024-01-15T07:25:04;24.67;;;14.40;;
3995;SDS011;2012;49.794;9.722;2024-01-15T07:27:33;27.93;;;14.40;;
3995;SDS011;2012;49.794;9.722;2024-01-15T07:30:00;24.30;;;12.27;;
3995;SDS011;2012;49.794;9.722;2024-01-15T07:32:28;29.80;;;14.20;;
3995;SDS011;2012;49.794;9.722;2024-01-15T07:34:55;27.13;;;13.10;;
3995;SDS011;2012;49.794;9.722;2024-01-15T07:37:22;37.00;;;14.90;;
3995;SDS011;2012;49.794;9.722;2024-01-15T07:39:49;27.10;;;12.97;;
3995;SDS011;2012;49.794;9.722;2024-01-15T07:42:17;27.03;;;11.77;;
3995;SDS011;2012;49.794;9.722;2024-01-15T07:44:43;28.80;;;13.60;;
3995;SDS011;2012;49.794;9.722;2024-01-15T07:47:11;21.63;;;12.03;;
3995;SDS011;2012;49.794;9.722;2024-01-15T07:49:38;24.60;;;12.30;;
3995;SDS011;2012;49.794;9.722;2024-01-15T07:52:05;26.47;;;12.83;;
3995;SDS011;2012;49.794;9.722;2024-01-15T07:54:32;23.50;;;11.20;;
3995;SDS011;2012;49.794;9.722;2024-01-15T07:57:00;31.27;;;14.20;;
3995;SDS011;2012;49.794;9.722;2024-01-15T07:59:31;28.17;;;14.70;;
3995;SDS011;2012;49.794;9.722;2024-01-15T08:01:58;28.70;;;14.17;;
3995;SDS011;2012;49.794;9.722;2024-01-15T08:04:26;27.43;;;14.63;;
3995;SDS011;2012;49.794;9.722;2024-01-15T08:06:54;30.63;;;14.90;;
3995;SDS011;2012;49.794;9.722;2024-01-15T08:09:21;27.43;;;14.00;;
3995;SDS011;2012;49.794;9.722;2024-01-15T08:11:48;27.80;;;14.30;;
3995;SDS011;2012;49.794;9.722;2024-01-15T08:14:18;23.60;;;12.33;;
3995;SDS011;2012;49.794;9.722;2024-01-15T08:16:45;29.70;;;12.80;;
3995;SDS011;2012;49.794;9.722;2024-01-15T08:19:12;22.30;;;11.33;;
3995;SDS011;2012;49.794;9.722;2024-01-15T08:21:41;22.60;;;12.03;;
3995;SDS011;2012;49.794;9.722;2024-01-15T08:24:08;28.60;;;13.83;;
3995;SDS011;2012;49.794;9.722;2024-01-15T08:26:35;32.53;;;14.63;;
3995;SDS011;2012;49.794;9.722;2024-01-15T08:29:02;29.87;;;15.07;;
3995;SDS011;2012;49.794;9.722;2024-01-15T08:31:29;32.47;;;14.73;;
3995;SDS011;2012;49.794;9.722;2024-01-15T08:33:56;24.90;;;11.53;;
3995;SDS011;2012;49.794;9.722;2024-01-15T08:36:23;26.60;;;12.90;;
3995;SDS011;2012;49.794;9.722;2024-01-15T08:38:51;26.47;;;12.70;;
3995;SDS011;2012;49.794;9.722;2024-01-15T08:41:18;26.27;;;12.77;;
3995;SDS011;2012;49.794;9.722;2024-01-15T08:43:44;20.30;;;12.00;;
3995;SDS011;2012;49.794;9.722;2024-01-15T08:46:11;27.17;;;13.73;;
3995;SDS011;2012;49.794;9.722;2024-01-15T08:48:38;22.83;;;10.20;;
3995;SDS011;2012;49.794;9.722;2024-01-15T08:51:06;26.27;;;12.70;;
3995;SDS011;2012;49.794;9.722;2024-01-15T08:53:34;24.43;;;12.80;;
3995;SDS011;2012;49.794;9.722;2024-01-15T08:56:01;23.00;;;12.30;;
3995;SDS011;2012;49.794;9.722;2024-01-15T08:58:28;18.40;;;10.80;;
3995;SDS011;2012;49.794;9.722;2024-01-15T09:00:55;23.07;;;12.30;;
3995;SDS011;2012;49.794;9.722;2024-01-15T09:03:22;24.40;;;11.77;;
3995;SDS011;2012;49.794;9.722;2024-01-15T09:05:49;20.63;;;11.13;;
3995;SDS011;2012;49.794;9.722;2024-01-15T09:08:17;21.77;;;11.53;;
3995;SDS011;2012;49.794;9.722;2024-01-15T09:10:44;22.40;;;11.10;;
3995;SDS011;2012;49.794;9.722;2024-01-15T09:13:12;23.23;;;11.43;;
3995;SDS011;2012;49.794;9.722;2024-01-15T09:15:39;21.73;;;12.17;;
3995;SDS011;2012;49.794;9.722;2024-01-15T09:18:05;23.77;;;12.57;;
3995;SDS011;2012;49.794;9.722;2024-01-15T09:20:34;19.83;;;10.00;;
3995;SDS011;2012;49.794;9.722;2024-01-15T09:23:01;20.07;;;11.03;;
3995;SDS011;2012;49.794;9.722;2024-01-15T09:25:28;26.30;;;10.97;;
3995;SDS011;2012;49.794;9.722;2024-01-15T09:27:55;18.90;;;11.40;;
3995;SDS011;2012;49.794;9.722;2024-01-15T09:30:22;23.20;;;11.03;;
3995;SDS011;2012;49.794;9.722;2024-01-15T09:32:49;19.07;;;9.60;;
3995;SDS011;2012;49.794;9.722;2024-01-15T09:35:16;18.17;;;10.20;;
3995;SDS011;2012;49.794;9.722;2024-01-15T09:37:43;19.90;;;11.00;;
3995;SDS011;2012;49.794;9.722;2024-01-15T09:40:14;19.30;;;9.73;;
3995;SDS011;2012;49.794;9.722;2024-01-15T09:42:42;22.97;;;9.93;;
3995;SDS011;2012;49.794;9.722;2024-01-15T09:45:10;17.87;;;10.57;;
3995;SDS011;2012;49.794;9.722;2024-01-15T09:47:38;17.40;;;9.73;;
3995;SDS011;2012;49.794;9.722;2024-01-15T09:50:11;18.83;;;10.43;;
3995;SDS011;2012;49.794;9.722;2024-01-15T09:52:40;14.63;;;8.90;;
3995;SDS011;2012;49.794;9.722;2024-01-15T09:55:08;18.00;;;10.17;;
3995;SDS011;2012;49.794;9.722;2024-01-15T09:57:36;22.17;;;10.03;;
3995;SDS011;2012;49.794;9.722;2024-01-15T10:00:04;22.07;;;10.87;;
3995;SDS011;2012;49.794;9.722;2024-01-15T10:02:33;18.97;;;10.23;;
3995;SDS011;2012;49.794;9.722;2024-01-15T10:05:02;23.87;;;12.10;;
3995;SDS011;2012;49.794;9.722;2024-01-15T10:07:29;17.50;;;10.93;;
3995;SDS011;2012;49.794;9.722;2024-01-15T10:10:00;21.73;;;11.07;;
3995;SDS011;2012;49.794;9.722;2024-01-15T10:12:27;21.90;;;10.37;;
3995;SDS011;2012;49.794;9.722;2024-01-15T10:14:58;21.20;;;10.27;;
3995;SDS011;2012;49.794;9.722;2024-01-15T10:17:24;15.90;;;10.00;;
3995;SDS011;2012;49.794;9.722;2024-01-15T10:19:55;16.57;;;9.87;;
3995;SDS011;2012;49.794;9.722;2024-01-15T10:22:22;20.97;;;10.70;;
3995;SDS011;2012;49.794;9.722;2024-01-15T10:24:49;16.03;;;10.30;;
3995;SDS011;2012;49.794;9.722;2024-01-15T10:27:17;25.20;;;12.00;;
3995;SDS011;2012;49.794;9.722;2024-01-15T10:29:44;20.67;;;11.37;;
3995;SDS011;2012;49.794;9.722;2024-01-15T10:32:11;23.70;;;11.90;;
3995;SDS011;2012;49.794;9.722;2024-01-15T10:34:39;20.30;;;11.20;;
3995;SDS011;2012;49.794;9.722;2024-01-15T10:37:08;20.33;;;11.50;;
3995;SDS011;2012;49.794;9.722;2024-01-15T10:39:36;17.80;;;10.30;;
3995;SDS011;2012;49.794;9.722;2024-01-15T10:42:04;25.87;;;14.13;;
3995;SDS011;2012;49.794;9.722;2024-01-15T10:44:31;23.40;;;13.00;;
3995;SDS011;2012;49.794;9.722;2024-01-15T10:46:58;21.20;;;11.00;;
3995;SDS011;2012;49.794;9.722;2024-01-15T10:49:25;27.63;;;11.67;;
3995;SDS011;2012;49.794;9.722;2024-01-15T10:51:58;16.83;;;10.53;;
3995;SDS011;2012;49.794;9.722;2024-01-15T10:54:26;17.07;;;9.43;;
3995;SDS011;2012;49.794;9.722;2024-01-15T10:56:54;13.63;;;9.20;;
3995;SDS011;2012;49.794;9.722;2024-01-15T10:59:22;18.43;;;9.80;;
3995;SDS011;2012;49.794;9.722;2024-01-15T11:01:50;18.90;;;10.20;;
3995;SDS011;2012;49.794;9.722;2024-01-15T11:04:21;22.90;;;11.40;;
3995;SDS011;2012;49.794;9.722;2024-01-15T11:06:51;22.10;;;12.60;;
3995;SDS011;2012;49.794;9.722;2024-01-15T11:09:21;27.77;;;13.17;;
3995;SDS011;2012;49.794;9.722;2024-01-15T11:11:51;19.67;;;10.87;;
3995;SDS011;2012;49.794;9.722;2024-01-15T11:14:38;18.83;;;10.80;;
3995;SDS011;2012;49.794;9.722;2024-01-15T11:17:06;14.70;;;10.00;;
3995;SDS011;2012;49.794;9.722;2024-01-15T11:22:56;16.53;;;8.73;;
3995;SDS011;2012;49.794;9.722;2024-01-15T11:25:04;18.60;;;9.87;;
3995;SDS011;2012;49.794;9.722;2024-01-15T11:27:43;14.90;;;9.77;;
3995;SDS011;2012;49.794;9.722;2024-01-15T11:30:14;16.23;;;9.00;;
3995;SDS011;2012;49.794;9.722;2024-01-15T11:32:41;16.23;;;10.00;;
3995;SDS011;2012;49.794;9.722;2024-01-15T11:35:09;13.50;;;8.47;;
3995;SDS011;2012;49.794;9.722;2024-01-15T11:37:56;15.40;;;8.97;;
3995;SDS011;2012;49.794;9.722;2024-01-15T11:43:00;15.87;;;9.50;;
3995;SDS011;2012;49.794;9.722;2024-01-15T11:45:27;18.23;;;10.33;;
3995;SDS011;2012;49.794;9.722;2024-01-15T11:48:03;18.50;;;10.00;;
3995;SDS011;2012;49.794;9.722;2024-01-15T11:50:35;16.13;;;10.47;;
3995;SDS011;2012;49.794;9.722;2024-01-15T11:53:04;16.43;;;10.67;;
3995;SDS011;2012;49.794;9.722;2024-01-15T11:55:43;13.60;;;9.03;;
3995;SDS011;2012;49.794;9.722;2024-01-15T11:58:12;12.77;;;8.60;;
3995;SDS011;2012;49.794;9.722;2024-01-15T12:00:43;18.80;;;10.30;;
3995;SDS011;2012;49.794;9.722;2024-01-15T12:03:20;14.17;;;9.43;;
3995;SDS011;2012;49.794;9.722;2024-01-15T12:05:54;14.83;;;9.17;;
3995;SDS011;2012;49.794;9.722;2024-01-15T12:08:22;14.67;;;9.23;;
3995;SDS011;2012;49.794;9.722;2024-01-15T12:10:49;15.03;;;9.57;;
3995;SDS011;2012;49.794;9.722;2024-01-15T12:13:16;16.97;;;9.40;;
3995;SDS011;2012;49.794;9.722;2024-01-15T12:15:45;15.10;;;9.43;;
3995;SDS011;2012;49.794;9.722;2024-01-15T12:18:13;16.60;;;9.50;;
3995;SDS011;2012;49.794;9.722;2024-01-15T12:20:45;16.13;;;9.97;;
3995;SDS011;2012;49.794;9.722;2024-01-15T12:23:16;11.43;;;7.43;;
3995;SDS011;2012;49.794;9.722;2024-01-15T12:25:44;15.27;;;8.40;;
3995;SDS011;2012;49.794;9.722;2024-01-15T12:28:11;12.87;;;8.60;;
3995;SDS011;2012;49.794;9.722;2024-01-15T12:30:38;16.07;;;8.63;;
3995;SDS011;2012;49.794;9.722;2024-01-15T12:33:06;16.00;;;9.57;;
3995;SDS011;2012;49.794;9.722;2024-01-15T12:35:35;11.77;;;8.00;;
3995;SDS011;2012;49.794;9.722;2024-01-15T12:38:03;12.50;;;8.20;;
3995;SDS011;2012;49.794;9.722;2024-01-15T12:40:31;11.17;;;7.63;;
3995;SDS011;2012;49.794;9.722;2024-01-15T12:43:03;10.30;;;7.50;;
3995;SDS011;2012;49.794;9.722;2024-01-15T12:45:32;13.10;;;7.83;;
3995;SDS011;2012;49.794;9.722;2024-01-15T12:47:59;12.20;;;7.17;;
3995;SDS011;2012;49.794;9.722;2024-01-15T12:50:27;14.37;;;8.17;;
3995;SDS011;2012;49.794;9.722;2024-01-15T12:52:53;12.90;;;7.90;;
3995;SDS011;2012;49.794;9.722;2024-01-15T12:55:21;16.87;;;9.07;;
3995;SDS011;2012;49.794;9.722;2024-01-15T12:57:48;11.17;;;7.33;;
3995;SDS011;2012;49.794;9.722;2024-01-15T13:00:16;12.63;;;7.17;;
3995;SDS011;2012;49.794;9.722;2024-01-15T13:02:43;32.80;;;16.60;;
3995;SDS011;2012;49.794;9.722;2024-01-15T13:05:10;29.53;;;15.70;;
3995;SDS011;2012;49.794;9.722;2024-01-15T13:07:40;7.53;;;5.73;;
3995;SDS011;2012;49.794;9.722;2024-01-15T13:10:07;6.70;;;5.43;;
3995;SDS011;2012;49.794;9.722;2024-01-15T13:12:40;7.13;;;5.60;;
3995;SDS011;2012;49.794;9.722;2024-01-15T13:15:08;8.70;;;6.60;;
3995;SDS011;2012;49.794;9.722;2024-01-15T13:17:41;8.70;;;5.50;;
3995;SDS011;2012;49.794;9.722;2024-01-15T13:20:09;10.13;;;7.03;;
3995;SDS011;2012;49.794;9.722;2024-01-15T13:22:37;7.83;;;6.00;;
3995;SDS011;2012;49.794;9.722;2024-01-15T13:25:06;8.13;;;5.77;;
3995;SDS011;2012;49.794;9.722;2024-01-15T13:27:34;9.57;;;7.07;;
3995;SDS011;2012;49.794;9.722;2024-01-15T13:30:02;11.07;;;7.10;;
3995;SDS011;2012;49.794;9.722;2024-01-15T13:32:30;10.60;;;7.47;;
3995;SDS011;2012;49.794;9.722;2024-01-15T13:34:57;10.63;;;6.70;;
3995;SDS011;2012;49.794;9.722;2024-01-15T13:37:24;9.03;;;6.83;;
3995;SDS011;2012;49.794;9.722;2024-01-15T13:39:51;8.40;;;6.00;;
3995;SDS011;2012;49.794;9.722;2024-01-15T13:42:19;11.77;;;8.10;;
3995;SDS011;2012;49.794;9.722;2024-01-15T13:44:48;21.10;;;11.17;;
3995;SDS011;2012;49.794;9.722;2024-01-15T13:47:17;25.60;;;15.67;;
3995;SDS011;2012;49.794;9.722;2024-01-15T13:49:43;11.77;;;8.00;;
3995;SDS011;2012;49.794;9.722;2024-01-15T13:52:10;8.80;;;6.63;;
3995;SDS011;2012;49.794;9.722;2024-01-15T13:54:39;10.37;;;7.00;;
3995;SDS011;2012;49.794;9.722;2024-01-15T13:57:18;9.43;;;7.23;;
3995;SDS011;2012;49.794;9.722;2024-01-15T13:59:46;11.03;;;7.30;;
3995;SDS011;2012;49.794;9.722;2024-01-15T14:02:13;12.50;;;8.33;;
3995;SDS011;2012;49.794;9.722;2024-01-15T14:04:49;12.20;;;8.53;;
3995;SDS011;2012;49.794;9.722;2024-01-15T14:07:16;11.97;;;9.37;;
3995;SDS011;2012;49.794;9.722;2024-01-15T14:09:43;24.07;;;13.30;;
3995;SDS011;2012;49.794;9.722;2024-01-15T14:12:10;27.47;;;15.77;;
3995;SDS011;2012;49.794;9.722;2024-01-15T14:14:38;32.10;;;18.43;;
3995;SDS011;2012;49.794;9.722;2024-01-15T14:17:06;23.43;;;13.70;;
3995;SDS011;2012;49.794;9.722;2024-01-15T14:19:33;24.07;;;14.27;;
3995;SDS011;2012;49.794;9.722;2024-01-15T14:22:00;37.30;;;21.03;;
3995;SDS011;2012;49.794;9.722;2024-01-15T14:24:27;40.20;;;19.77;;
3995;SDS011;2012;49.794;9.722;2024-01-15T14:26:54;36.20;;;18.70;;
3995;SDS011;2012;49.794;9.722;2024-01-15T14:29:20;60.77;;;30.57;;
3995;SDS011;2012;49.794;9.722;2024-01-15T14:31:49;22.70;;;12.93;;
3995;SDS011;2012;49.794;9.722;2024-01-15T14:34:16;22.57;;;12.70;;
3995;SDS011;2012;49.794;9.722;2024-01-15T14:36:44;16.83;;;11.50;;
3995;SDS011;2012;49.794;9.722;2024-01-15T14:39:13;14.47;;;9.97;;
3995;SDS011;2012;49.794;9.722;2024-01-15T14:41:39;15.97;;;10.13;;
3995;SDS011;2012;49.794;9.722;2024-01-15T14:44:06;21.03;;;10.50;;
3995;SDS011;2012;49.794;9.722;2024-01-15T14:46:33;15.20;;;10.03;;
3995;SDS011;2012;49.794;9.722;2024-01-15T14:49:00;13.73;;;9.73;;
3995;SDS011;2012;49.794;9.722;2024-01-15T14:51:27;12.23;;;8.87;;
3995;SDS011;2012;49.794;9.722;2024-01-15T14:53:53;12.17;;;8.47;;
3995;SDS011;2012;49.794;9.722;2024-01-15T14:56:21;12.73;;;8.73;;
3995;SDS011;2012;49.794;9.722;2024-01-15T14:58:48;16.30;;;8.70;;
3995;SDS011;2012;49.794;9.722;2024-01-15T15:01:15;14.37;;;8.83;;
3995;SDS011;2012;49.794;9.722;2024-01-15T15:03:42;17.40;;;10.10;;
3995;SDS011;2012;49.794;9.722;2024-01-15T15:06:10;15.07;;;9.23;;
3995;SDS011;2012;49.794;9.722;2024-01-15T15:08:39;17.37;;;11.03;;
3995;SDS011;2012;49.794;9.722;2024-01-15T15:11:06;14.67;;;9.77;;
3995;SDS011;2012;49.794;9.722;2024-01-15T15:13:33;19.20;;;9.97;;
3995;SDS011;2012;49.794;9.722;2024-01-15T15:16:11;19.27;;;10.43;;
3995;SDS011;2012;49.794;9.722;2024-01-15T15:18:40;14.60;;;8.40;;
3995;SDS011;2012;49.794;9.722;2024-01-15T15:21:09;18.40;;;8.87;;
3995;SDS011;2012;49.794;9.722;2024-01-15T15:23:38;11.07;;;8.20;;